createdAt,value
2022-08-30T00:00:05.864Z,16.57
2022-08-30T00:02:54.462Z,16.55
2022-08-30T00:05:23.575Z,16.55
2022-08-30T00:07:51.454Z,16.54
2022-08-30T00:10:20.386Z,16.54
2022-08-30T00:12:49.122Z,16.54
2022-08-30T00:15:18.974Z,16.54
2022-08-30T00:17:47.739Z,16.54
2022-08-30T00:20:20.604Z,16.53
2022-08-30T00:22:49.097Z,16.53
2022-08-30T00:25:19.350Z,16.53
2022-08-30T00:27:47.434Z,16.52
2022-08-30T00:30:17.870Z,16.53
2022-08-30T00:32:46.226Z,16.54
2022-08-30T00:35:16.425Z,16.55
2022-08-30T00:37:44.696Z,16.55
2022-08-30T00:40:16.064Z,16.54
2022-08-30T00:42:44.916Z,16.54
2022-08-30T00:45:25.873Z,16.53
2022-08-30T00:47:55.294Z,16.52
2022-08-30T00:50:28.414Z,16.52
2022-08-30T00:53:00.472Z,16.52
2022-08-30T00:55:30.026Z,16.51
2022-08-30T00:58:02.359Z,16.49
2022-08-30T01:00:33.158Z,16.47
2022-08-30T01:03:01.294Z,16.46
2022-08-30T01:05:30.367Z,16.46
2022-08-30T01:07:59.049Z,16.44
2022-08-30T01:10:27.016Z,16.41
2022-08-30T01:12:54.897Z,16.38
2022-08-30T01:15:23.555Z,16.38
2022-08-30T01:17:51.680Z,16.36
2022-08-30T01:20:38.033Z,16.34
2022-08-30T01:23:15.068Z,16.31
2022-08-30T01:25:46.868Z,16.28
2022-08-30T01:28:20.287Z,16.25
2022-08-30T01:30:48.738Z,16.23
2022-08-30T01:33:17.205Z,16.21
2022-08-30T01:35:56.503Z,16.18
2022-08-30T01:38:57.018Z,16.15
2022-08-30T01:41:32.144Z,16.13
2022-08-30T01:44:02.704Z,16.11
2022-08-30T01:46:37.639Z,16.09
2022-08-30T01:49:10.735Z,16.06
2022-08-30T01:51:39.150Z,16.04
2022-08-30T01:54:07.876Z,16.03
2022-08-30T01:56:35.816Z,16.01
2022-08-30T01:59:04.879Z,16.00
2022-08-30T02:01:37.029Z,15.98
2022-08-30T02:04:06.386Z,15.98
2022-08-30T02:06:34.854Z,15.97
2022-08-30T02:09:02.844Z,15.97
2022-08-30T02:11:31.055Z,15.96
2022-08-30T02:13:59.381Z,15.95
2022-08-30T02:16:28.264Z,15.95
2022-08-30T02:18:58.381Z,15.94
2022-08-30T02:21:27.889Z,15.93
2022-08-30T02:23:56.327Z,15.93
2022-08-30T02:26:25.129Z,15.92
2022-08-30T02:28:54.149Z,15.90
2022-08-30T02:31:23.512Z,15.91
2022-08-30T02:33:53.470Z,15.89
2022-08-30T02:36:22.907Z,15.87
2022-08-30T02:38:51.730Z,15.85
2022-08-30T02:41:20.946Z,15.83
2022-08-30T02:43:49.299Z,15.82
2022-08-30T02:46:18.570Z,15.79
2022-08-30T02:48:46.764Z,15.78
2022-08-30T02:51:15.017Z,15.75
2022-08-30T02:53:44.398Z,15.73
2022-08-30T02:56:14.213Z,15.71
2022-08-30T02:58:43.827Z,15.68
2022-08-30T03:01:14.175Z,15.66
2022-08-30T03:03:44.128Z,15.64
2022-08-30T03:06:12.404Z,15.62
2022-08-30T03:08:40.754Z,15.59
2022-08-30T03:11:09.662Z,15.59
2022-08-30T03:13:37.931Z,15.58
2022-08-30T03:16:06.137Z,15.57
2022-08-30T03:18:34.374Z,15.57
2022-08-30T03:21:02.815Z,15.55
2022-08-30T03:23:31.590Z,15.54
2022-08-30T03:25:59.600Z,15.54
2022-08-30T03:28:27.964Z,15.53
2022-08-30T03:30:56.806Z,15.52
2022-08-30T03:33:25.111Z,15.51
2022-08-30T03:35:53.333Z,15.50
2022-08-30T03:38:21.696Z,15.49
2022-08-30T03:40:50.204Z,15.48
2022-08-30T03:43:19.025Z,15.46
2022-08-30T03:45:47.491Z,15.45
2022-08-30T03:48:15.470Z,15.44
2022-08-30T03:50:43.989Z,15.43
2022-08-30T03:53:11.943Z,15.43
2022-08-30T03:55:39.896Z,15.44
2022-08-30T03:58:08.141Z,15.44
2022-08-30T04:00:36.176Z,15.45
2022-08-30T04:03:04.293Z,15.45
2022-08-30T04:05:32.372Z,15.45
2022-08-30T04:08:00.320Z,15.46
2022-08-30T04:10:28.317Z,15.45
2022-08-30T04:12:56.966Z,15.46
2022-08-30T04:15:24.732Z,15.46
2022-08-30T04:17:54.080Z,15.45
2022-08-30T04:20:21.976Z,15.45
2022-08-30T04:22:50.220Z,15.43
2022-08-30T04:25:18.877Z,15.43
2022-08-30T04:27:47.174Z,15.44
2022-08-30T04:30:16.832Z,15.45
2022-08-30T04:32:45.672Z,15.46
2022-08-30T04:35:13.962Z,15.47
2022-08-30T04:37:42.045Z,15.50
2022-08-30T04:40:10.679Z,15.52
2022-08-30T04:42:39.066Z,15.55
2022-08-30T04:45:10.921Z,15.59
2022-08-30T04:47:39.479Z,15.62
2022-08-30T04:50:10.168Z,15.66
2022-08-30T04:52:38.362Z,15.71
2022-08-30T04:55:09.067Z,15.75
2022-08-30T04:57:38.878Z,15.79
2022-08-30T05:00:10.342Z,15.84
2022-08-30T05:02:40.126Z,15.90
2022-08-30T05:05:28.896Z,15.94
2022-08-30T05:07:57.500Z,16.00
2022-08-30T05:10:27.609Z,16.05
2022-08-30T05:12:55.999Z,16.11
2022-08-30T05:15:24.038Z,16.16
2022-08-30T05:17:52.411Z,16.22
2022-08-30T05:20:20.356Z,16.27
2022-08-30T05:22:53.611Z,16.32
2022-08-30T05:25:26.286Z,16.38
2022-08-30T05:27:56.230Z,16.44
2022-08-30T05:30:25.586Z,16.48
2022-08-30T05:32:55.170Z,16.51
2022-08-30T05:35:25.721Z,16.54
2022-08-30T05:37:55.285Z,16.55
2022-08-30T05:40:23.735Z,16.58
2022-08-30T05:42:52.709Z,16.61
2022-08-30T05:45:20.951Z,16.63
2022-08-30T05:47:48.964Z,16.65
2022-08-30T05:50:17.077Z,16.67
2022-08-30T05:52:45.667Z,16.69
2022-08-30T05:55:13.702Z,16.69
2022-08-30T05:57:42.051Z,16.71
2022-08-30T06:00:19.073Z,16.72
2022-08-30T06:02:47.628Z,16.75
2022-08-30T06:05:15.790Z,16.77
2022-08-30T06:07:44.754Z,16.79
2022-08-30T06:10:12.770Z,16.81
2022-08-30T06:12:41.078Z,16.83
2022-08-30T06:15:09.446Z,16.86
2022-08-30T06:17:39.806Z,16.90
2022-08-30T06:20:08.748Z,16.93
2022-08-30T06:22:38.891Z,16.97
2022-08-30T06:25:07.504Z,17.00
2022-08-30T06:27:35.729Z,17.03
2022-08-30T06:30:08.452Z,17.04
2022-08-30T06:32:37.577Z,17.07
2022-08-30T06:35:07.214Z,17.09
2022-08-30T06:37:35.305Z,17.10
2022-08-30T06:40:04.846Z,17.10
2022-08-30T06:42:33.840Z,17.13
2022-08-30T06:45:03.382Z,17.13
2022-08-30T06:47:40.769Z,17.16
2022-08-30T06:50:11.915Z,17.20
2022-08-30T06:52:45.298Z,17.26
2022-08-30T06:55:18.102Z,17.33
2022-08-30T06:57:46.687Z,17.41
2022-08-30T07:00:17.019Z,17.47
2022-08-30T07:02:45.230Z,17.54
2022-08-30T07:05:18.171Z,17.62
2022-08-30T07:07:46.956Z,17.71
2022-08-30T07:10:17.977Z,17.77
2022-08-30T07:12:46.032Z,17.82
2022-08-30T07:15:14.595Z,17.86
2022-08-30T07:18:05.790Z,17.95
2022-08-30T07:20:39.906Z,18.03
2022-08-30T07:23:09.886Z,18.07
2022-08-30T07:25:39.958Z,18.16
2022-08-30T07:28:09.192Z,18.20
2022-08-30T07:30:37.567Z,18.21
2022-08-30T07:33:05.855Z,18.23
2022-08-30T07:35:34.111Z,18.23
2022-08-30T07:38:01.971Z,18.25
2022-08-30T07:40:30.904Z,18.28
2022-08-30T07:43:02.231Z,18.36
2022-08-30T07:45:31.638Z,18.46
2022-08-30T07:47:59.915Z,18.55
2022-08-30T07:50:27.885Z,18.64
2022-08-30T07:52:56.132Z,18.75
2022-08-30T07:55:24.377Z,18.88
2022-08-30T07:57:52.255Z,19.00
2022-08-30T08:00:20.568Z,19.11
2022-08-30T08:02:48.479Z,19.20
2022-08-30T08:05:18.754Z,19.27
2022-08-30T08:07:48.288Z,19.28
2022-08-30T08:10:17.120Z,19.30
2022-08-30T08:12:45.045Z,19.33
2022-08-30T08:15:16.434Z,19.35
2022-08-30T08:17:44.738Z,19.34
2022-08-30T08:20:12.600Z,19.32
2022-08-30T08:22:40.754Z,19.29
2022-08-30T08:25:09.227Z,19.28
2022-08-30T08:27:37.165Z,19.26
2022-08-30T08:30:05.891Z,19.24
2022-08-30T08:32:33.818Z,19.22
2022-08-30T08:35:02.450Z,19.23
2022-08-30T08:37:30.548Z,19.26
2022-08-30T08:39:58.524Z,19.31
2022-08-30T08:42:40.061Z,19.35
2022-08-30T08:45:19.635Z,19.39
2022-08-30T08:47:54.904Z,19.41
2022-08-30T08:50:24.519Z,19.44
2022-08-30T08:53:45.613Z,19.47
2022-08-30T08:56:17.843Z,19.51
2022-08-30T08:58:58.042Z,19.56
2022-08-30T09:01:29.476Z,19.67
2022-08-30T09:03:59.843Z,19.79
2022-08-30T09:07:03.879Z,19.91
2022-08-30T09:09:34.891Z,19.99
2022-08-30T09:12:04.660Z,20.01
2022-08-30T09:14:47.105Z,20.01
2022-08-30T09:17:18.329Z,20.03
2022-08-30T09:19:52.489Z,20.06
2022-08-30T09:22:35.978Z,20.07
2022-08-30T09:25:12.847Z,20.05
2022-08-30T09:27:43.695Z,20.03
2022-08-30T09:30:25.464Z,20.05
2022-08-30T09:32:58.877Z,20.05
2022-08-30T09:35:37.642Z,20.06
2022-08-30T09:38:11.676Z,20.05
2022-08-30T09:40:47.357Z,20.04
2022-08-30T09:43:29.626Z,20.04
2022-08-30T09:46:00.986Z,20.03
2022-08-30T09:48:33.101Z,20.04
2022-08-30T09:51:10.140Z,20.05
2022-08-30T09:54:18.754Z,20.07
2022-08-30T09:56:59.467Z,20.10
2022-08-30T09:59:49.230Z,20.11
2022-08-30T10:02:36.272Z,20.12
2022-08-30T10:05:25.263Z,20.10
2022-08-30T10:08:19.543Z,20.08
2022-08-30T10:11:00.982Z,20.04
2022-08-30T10:14:11.070Z,20.02
2022-08-30T10:16:55.178Z,19.98
2022-08-30T10:20:00.953Z,19.95
2022-08-30T10:22:34.585Z,19.94
2022-08-30T10:25:10.429Z,19.94
2022-08-30T10:28:01.272Z,19.97
2022-08-30T10:30:36.728Z,20.02
2022-08-30T10:33:21.226Z,20.05
2022-08-30T10:36:00.125Z,20.07
2022-08-30T10:38:32.746Z,20.09
2022-08-30T10:41:21.912Z,20.08
2022-08-30T10:44:19.021Z,20.09
2022-08-30T10:47:05.488Z,20.09
2022-08-30T10:49:43.945Z,20.08
2022-08-30T10:52:34.437Z,20.09
2022-08-30T10:55:14.220Z,20.11
2022-08-30T10:57:43.080Z,20.12
2022-08-30T11:00:22.554Z,20.10
2022-08-30T11:03:09.195Z,20.10
2022-08-30T11:06:03.569Z,20.14
2022-08-30T11:08:46.056Z,20.17
2022-08-30T11:11:27.083Z,20.21
2022-08-30T11:13:57.483Z,20.23
2022-08-30T11:16:37.554Z,20.26
2022-08-30T11:19:26.594Z,20.29
2022-08-30T11:22:25.350Z,20.32
2022-08-30T11:25:16.622Z,20.36
2022-08-30T11:27:59.031Z,20.37
2022-08-30T11:30:27.390Z,20.37
2022-08-30T11:33:09.386Z,20.37
2022-08-30T11:35:52.777Z,20.38
2022-08-30T11:38:40.791Z,20.40
2022-08-30T11:41:10.701Z,20.42
2022-08-30T11:43:40.317Z,20.45
2022-08-30T11:46:36.652Z,20.47
2022-08-30T11:49:13.727Z,20.52
2022-08-30T11:55:22.614Z,20.62
2022-08-30T11:57:58.626Z,20.69
2022-08-30T12:00:34.908Z,20.73
2022-08-30T12:03:26.336Z,20.83
2022-08-30T12:06:06.841Z,20.93
2022-08-30T12:08:34.755Z,21.01
2022-08-30T12:11:09.458Z,21.05
2022-08-30T12:13:38.255Z,21.08
2022-08-30T12:16:09.405Z,21.07
2022-08-30T12:19:01.392Z,21.08
2022-08-30T12:21:44.932Z,21.10
2022-08-30T12:24:27.692Z,21.12
2022-08-30T12:26:58.422Z,21.14
2022-08-30T12:29:30.756Z,21.13
2022-08-30T12:32:17.744Z,21.11
2022-08-30T12:34:45.591Z,21.08
2022-08-30T12:37:26.956Z,21.04
2022-08-30T12:40:08.447Z,20.99
2022-08-30T12:42:41.420Z,20.93
2022-08-30T12:45:16.142Z,20.89
2022-08-30T12:47:44.702Z,20.85
2022-08-30T12:50:19.379Z,20.79
2022-08-30T12:52:56.736Z,20.74
2022-08-30T12:55:33.316Z,20.69
2022-08-30T12:58:09.835Z,20.63
2022-08-30T13:00:41.334Z,20.57
2022-08-30T13:03:30.746Z,20.53
2022-08-30T13:05:59.059Z,20.49
2022-08-30T13:08:36.956Z,20.44
2022-08-30T13:11:09.161Z,20.40
2022-08-30T13:13:53.079Z,20.37
2022-08-30T13:16:35.441Z,20.34
2022-08-30T13:19:37.614Z,20.31
2022-08-30T13:22:07.423Z,20.30
2022-08-30T13:24:35.950Z,20.29
2022-08-30T13:27:12.105Z,20.27
2022-08-30T13:29:40.609Z,20.26
2022-08-30T13:32:10.196Z,20.25
2022-08-30T13:34:39.498Z,20.24
2022-08-30T13:37:44.289Z,20.22
2022-08-30T13:40:02.556Z,20.21
2022-08-30T13:42:33.148Z,20.19
2022-08-30T13:45:01.711Z,20.18
2022-08-30T13:47:32.672Z,20.16
2022-08-30T13:50:01.364Z,20.15
2022-08-30T13:52:29.597Z,20.14
2022-08-30T13:54:58.020Z,20.13
2022-08-30T14:00:19.957Z,20.12
2022-08-30T14:02:54.724Z,20.11
2022-08-30T14:11:18.319Z,20.11
2022-08-30T14:16:39.716Z,20.13
2022-08-30T14:19:12.386Z,20.13
2022-08-30T14:21:41.068Z,20.13
2022-08-30T14:24:09.957Z,20.13
2022-08-30T14:26:47.851Z,20.13
2022-08-30T14:29:22.554Z,20.14
2022-08-30T14:31:52.731Z,20.13
2022-08-30T14:34:23.144Z,20.13
2022-08-30T14:36:51.142Z,20.12
2022-08-30T14:39:20.856Z,20.11
2022-08-30T14:41:52.593Z,20.10
2022-08-30T14:44:23.571Z,20.11
2022-08-30T14:46:53.194Z,20.10
2022-08-30T14:49:21.397Z,20.10
2022-08-30T14:51:49.660Z,20.11
2022-08-30T14:54:23.433Z,20.10
2022-08-30T14:56:54.874Z,20.09
2022-08-30T14:59:23.676Z,20.08
2022-08-30T15:01:52.780Z,20.06
2022-08-30T15:04:21.848Z,20.04
2022-08-30T15:06:50.499Z,20.03
2022-08-30T15:09:23.563Z,20.00
2022-08-30T15:11:58.541Z,19.96
2022-08-30T15:14:56.184Z,19.92
2022-08-30T15:17:25.269Z,19.87
2022-08-30T15:19:56.814Z,19.84
2022-08-30T15:22:24.988Z,19.81
2022-08-30T15:24:52.835Z,19.79
2022-08-30T15:27:21.032Z,19.78
2022-08-30T15:29:49.285Z,19.76
2022-08-30T15:32:17.784Z,19.74
2022-08-30T15:34:53.065Z,19.73
2022-08-30T15:37:24.473Z,19.70
2022-08-30T15:39:53.793Z,19.68
2022-08-30T15:42:21.650Z,19.68
2022-08-30T15:44:54.591Z,19.67
2022-08-30T15:47:24.006Z,19.64
2022-08-30T15:49:56.894Z,19.64
2022-08-30T15:52:25.908Z,19.63
2022-08-30T15:54:55.739Z,19.63
2022-08-30T15:57:24.613Z,19.64
2022-08-30T15:59:54.653Z,19.64
2022-08-30T16:02:27.911Z,19.65
2022-08-30T16:04:56.209Z,19.65
2022-08-30T16:07:24.272Z,19.65
2022-08-30T16:09:53.517Z,19.65
2022-08-30T16:12:23.591Z,19.65
2022-08-30T16:14:52.135Z,19.65
2022-08-30T16:17:20.170Z,19.65
2022-08-30T16:19:48.277Z,19.66
2022-08-30T16:22:22.271Z,19.66
2022-08-30T16:24:51.929Z,19.66
2022-08-30T16:27:21.179Z,19.65
2022-08-30T16:29:50.114Z,19.64
2022-08-30T16:32:18.922Z,19.63
2022-08-30T16:34:47.474Z,19.60
2022-08-30T16:37:15.713Z,19.57
2022-08-30T16:39:46.710Z,19.55
2022-08-30T16:42:20.770Z,19.53
2022-08-30T16:44:50.179Z,19.51
2022-08-30T16:47:22.170Z,19.49
2022-08-30T16:49:52.315Z,19.46
2022-08-30T16:52:20.538Z,19.43
2022-08-30T16:57:50.544Z,19.39
2022-08-30T17:00:19.637Z,19.37
2022-08-30T17:02:54.094Z,19.34
2022-08-30T17:05:23.376Z,19.31
2022-08-30T17:07:52.318Z,19.29
2022-08-30T17:10:23.326Z,19.27
2022-08-30T17:12:54.469Z,19.24
2022-08-30T17:15:22.895Z,19.21
2022-08-30T17:17:50.782Z,19.19
2022-08-30T17:20:22.379Z,19.16
2022-08-30T17:22:50.905Z,19.14
2022-08-30T17:25:19.435Z,19.12
2022-08-30T17:27:48.398Z,19.10
2022-08-30T17:30:17.121Z,19.07
2022-08-30T17:32:45.767Z,19.05
2022-08-30T17:35:17.982Z,19.02
2022-08-30T17:37:46.263Z,19.00
2022-08-30T17:40:19.374Z,18.98
2022-08-30T17:42:48.654Z,18.96
2022-08-30T17:45:18.101Z,18.95
2022-08-30T17:47:47.170Z,18.94
2022-08-30T17:50:16.057Z,18.92
2022-08-30T17:52:47.869Z,18.90
2022-08-30T17:55:16.257Z,18.89
2022-08-30T17:57:46.219Z,18.87
2022-08-30T18:00:20.320Z,18.85
2022-08-30T18:02:49.619Z,18.83
2022-08-30T18:05:18.058Z,18.82
2022-08-30T18:07:53.146Z,18.80
2022-08-30T18:10:28.537Z,18.76
2022-08-30T18:13:01.601Z,18.72
2022-08-30T18:15:30.829Z,18.70
2022-08-30T18:17:58.772Z,18.67
2022-08-30T18:20:27.588Z,18.65
2022-08-30T18:22:59.185Z,18.62
2022-08-30T18:25:27.454Z,18.59
2022-08-30T18:27:58.232Z,18.56
2022-08-30T18:30:33.523Z,18.54
2022-08-30T18:33:02.973Z,18.51
2022-08-30T18:35:34.940Z,18.49
2022-08-30T18:38:04.814Z,18.45
2022-08-30T18:40:32.921Z,18.42
2022-08-30T18:43:08.025Z,18.39
2022-08-30T18:45:38.147Z,18.36
2022-08-30T18:48:06.095Z,18.32
2022-08-30T18:50:34.339Z,18.27
2022-08-30T18:53:02.679Z,18.22
2022-08-30T18:55:31.176Z,18.18
2022-08-30T18:57:59.132Z,18.14
2022-08-30T19:00:30.652Z,18.10
2022-08-30T19:02:58.716Z,18.05
2022-08-30T19:05:27.124Z,18.02
2022-08-30T19:07:55.901Z,17.99
2022-08-30T19:10:26.583Z,17.96
2022-08-30T19:12:55.394Z,17.94
2022-08-30T19:15:23.910Z,17.90
2022-08-30T19:17:51.944Z,17.88
2022-08-30T19:20:22.539Z,17.85
2022-08-30T19:23:09.821Z,17.82
2022-08-30T19:25:41.516Z,17.79
2022-08-30T19:28:10.965Z,17.76
2022-08-30T19:30:39.699Z,17.74
2022-08-30T19:33:08.360Z,17.71
2022-08-30T19:35:39.835Z,17.69
2022-08-30T19:38:07.698Z,17.67
2022-08-30T19:40:35.894Z,17.65
2022-08-30T19:43:05.350Z,17.63
2022-08-30T19:45:34.320Z,17.61
2022-08-30T19:48:02.685Z,17.59
2022-08-30T19:50:32.757Z,17.57
2022-08-30T19:53:01.816Z,17.56
2022-08-30T19:55:31.569Z,17.55
2022-08-30T19:58:00.078Z,17.53
2022-08-30T20:00:31.367Z,17.51
2022-08-30T20:03:01.493Z,17.48
2022-08-30T20:05:31.968Z,17.47
2022-08-30T20:08:00.144Z,17.48
2022-08-30T20:10:28.821Z,17.48
2022-08-30T20:12:57.176Z,17.48
2022-08-30T20:15:26.434Z,17.49
2022-08-30T20:18:14.047Z,17.51
2022-08-30T20:20:48.046Z,17.51
2022-08-30T20:23:19.694Z,17.52
2022-08-30T20:25:55.689Z,17.53
2022-08-30T20:28:25.482Z,17.54
2022-08-30T20:30:54.794Z,17.54
2022-08-30T20:33:25.568Z,17.55
2022-08-30T20:35:53.487Z,17.56
2022-08-30T20:38:22.587Z,17.56
2022-08-30T20:40:54.262Z,17.55
2022-08-30T20:43:26.052Z,17.54
2022-08-30T20:45:55.385Z,17.52
2022-08-30T20:48:26.272Z,17.51
2022-08-30T20:50:54.681Z,17.50
2022-08-30T20:53:23.005Z,17.50
2022-08-30T20:55:50.992Z,17.49
2022-08-30T20:58:19.036Z,17.47
2022-08-30T21:00:52.535Z,17.46
2022-08-30T21:03:28.034Z,17.45
2022-08-30T21:05:56.939Z,17.44
2022-08-30T21:08:25.509Z,17.43
2022-08-30T21:10:54.670Z,17.42
2022-08-30T21:13:23.826Z,17.40
2022-08-30T21:16:00.559Z,17.39
2022-08-30T21:18:34.725Z,17.38
2022-08-30T21:21:15.675Z,17.36
2022-08-30T21:23:43.876Z,17.35
2022-08-30T21:26:12.071Z,17.33
2022-08-30T21:28:40.433Z,17.32
2022-08-30T21:31:14.471Z,17.30
2022-08-30T21:33:42.757Z,17.27
2022-08-30T21:36:29.820Z,17.26
2022-08-30T21:39:00.842Z,17.24
2022-08-30T21:41:31.736Z,17.24
2022-08-30T21:44:03.886Z,17.23
2022-08-30T21:46:34.102Z,17.22
2022-08-30T21:49:08.392Z,17.21
2022-08-30T21:51:39.939Z,17.20
2022-08-30T21:54:09.928Z,17.19
2022-08-30T21:56:40.532Z,17.18
2022-08-30T21:59:10.056Z,17.17
2022-08-30T22:01:39.116Z,17.16
2022-08-30T22:04:10.515Z,17.14
2022-08-30T22:06:43.422Z,17.12
2022-08-30T22:09:16.026Z,17.09
2022-08-30T22:11:45.529Z,17.06
2022-08-30T22:14:14.452Z,17.03
2022-08-30T22:16:43.651Z,17.00
2022-08-30T22:19:12.531Z,16.96
2022-08-30T22:21:42.341Z,16.94
2022-08-30T22:24:14.439Z,16.92
2022-08-30T22:26:44.120Z,16.91
2022-08-30T22:29:14.429Z,16.89
2022-08-30T22:31:44.744Z,16.87
2022-08-30T22:34:13.062Z,16.86
2022-08-30T22:36:41.306Z,16.85
2022-08-30T22:39:09.923Z,16.84
2022-08-30T22:41:38.212Z,16.82
2022-08-30T22:44:06.581Z,16.80
2022-08-30T22:46:36.398Z,16.79
2022-08-30T22:49:07.134Z,16.77
2022-08-30T22:51:35.818Z,16.75
2022-08-30T22:54:06.013Z,16.73
2022-08-30T22:56:35.679Z,16.72
2022-08-30T22:59:05.348Z,16.72
2022-08-30T23:01:37.268Z,16.71
2022-08-30T23:04:07.488Z,16.70
2022-08-30T23:06:36.482Z,16.71
2022-08-30T23:09:06.184Z,16.69
2022-08-30T23:11:35.228Z,16.70
2022-08-30T23:14:05.597Z,16.70
2022-08-30T23:16:34.132Z,16.70
2022-08-30T23:19:02.637Z,16.70
2022-08-30T23:21:31.320Z,16.70
2022-08-30T23:24:18.753Z,16.69
2022-08-30T23:27:06.120Z,16.69
2022-08-30T23:29:53.873Z,16.68
2022-08-30T23:32:41.179Z,16.67
2022-08-30T23:35:30.817Z,16.67
2022-08-30T23:38:19.277Z,16.68
2022-08-30T23:41:05.768Z,16.68
2022-08-30T23:43:54.075Z,16.68
2022-08-30T23:46:41.980Z,16.69
2022-08-30T23:49:28.892Z,16.69
2022-08-30T23:52:15.339Z,16.69
2022-08-30T23:55:02.501Z,16.69
2022-08-30T23:57:49.657Z,16.69
